sensor_id;sensor_type;location;lat;lon;timestamp;P1;durP1;ratioP1;P2;durP2;ratioP2
53207;SDS011;39093;52.788;6.940;2023-11-21T00:00:03;81.72;;;31.70;;
53207;SDS011;39093;52.788;6.940;2023-11-21T00:02:36;92.75;;;34.33;;
53207;SDS011;39093;52.788;6.940;2023-11-21T00:05:09;99.80;;;34.15;;
53207;SDS011;39093;52.788;6.940;2023-11-21T00:07:37;86.05;;;32.95;;
53207;SDS011;39093;52.788;6.940;2023-11-21T00:10:05;97.65;;;32.00;;
53207;SDS011;39093;52.788;6.940;2023-11-21T00:12:32;101.88;;;34.67;;
53207;SDS011;39093;52.788;6.940;2023-11-21T00:15:00;82.25;;;32.60;;
53207;SDS011;39093;52.788;6.940;2023-11-21T00:17:28;85.80;;;33.35;;
53207;SDS011;39093;52.788;6.940;2023-11-21T00:19:55;85.30;;;33.70;;
53207;SDS011;39093;52.788;6.940;2023-11-21T00:22:22;103.10;;;33.03;;
53207;SDS011;39093;52.788;6.940;2023-11-21T00:24:49;80.38;;;31.50;;
53207;SDS011;39093;52.788;6.940;2023-11-21T00:27:16;87.68;;;32.47;;
53207;SDS011;39093;52.788;6.940;2023-11-21T00:29:43;99.40;;;33.95;;
53207;SDS011;39093;52.788;6.940;2023-11-21T00:32:10;94.85;;;33.40;;
53207;SDS011;39093;52.788;6.940;2023-11-21T00:34:36;89.65;;;32.50;;
53207;SDS011;39093;52.788;6.940;2023-11-21T00:37:03;90.20;;;34.40;;
53207;SDS011;39093;52.788;6.940;2023-11-21T00:39:30;111.18;;;33.90;;
53207;SDS011;39093;52.788;6.940;2023-11-21T00:41:59;98.90;;;35.13;;
53207;SDS011;39093;52.788;6.940;2023-11-21T00:44:26;98.85;;;34.45;;
53207;SDS011;39093;52.788;6.940;2023-11-21T00:46:53;92.20;;;32.45;;
53207;SDS011;39093;52.788;6.940;2023-11-21T00:49:21;104.68;;;33.58;;
53207;SDS011;39093;52.788;6.940;2023-11-21T00:51:48;93.28;;;34.33;;
53207;SDS011;39093;52.788;6.940;2023-11-21T00:54:15;97.82;;;34.55;;
53207;SDS011;39093;52.788;6.940;2023-11-21T00:56:43;98.25;;;35.42;;
53207;SDS011;39093;52.788;6.940;2023-11-21T00:59:10;98.00;;;35.40;;
53207;SDS011;39093;52.788;6.940;2023-11-21T01:01:37;94.28;;;33.20;;
53207;SDS011;39093;52.788;6.940;2023-11-21T01:04:04;91.20;;;34.03;;
53207;SDS011;39093;52.788;6.940;2023-11-21T01:06:33;109.03;;;35.90;;
53207;SDS011;39093;52.788;6.940;2023-11-21T01:09:00;107.25;;;36.70;;
53207;SDS011;39093;52.788;6.940;2023-11-21T01:11:27;99.22;;;36.70;;
53207;SDS011;39093;52.788;6.940;2023-11-21T01:13:54;81.32;;;34.20;;
53207;SDS011;39093;52.788;6.940;2023-11-21T01:16:21;87.15;;;34.65;;
53207;SDS011;39093;52.788;6.940;2023-11-21T01:18:51;78.13;;;32.42;;
53207;SDS011;39093;52.788;6.940;2023-11-21T01:21:18;91.18;;;34.92;;
53207;SDS011;39093;52.788;6.940;2023-11-21T01:23:45;85.68;;;30.88;;
53207;SDS011;39093;52.788;6.940;2023-11-21T01:26:12;100.25;;;33.00;;
53207;SDS011;39093;52.788;6.940;2023-11-21T01:28:38;91.90;;;32.47;;
53207;SDS011;39093;52.788;6.940;2023-11-21T01:31:05;91.40;;;31.27;;
53207;SDS011;39093;52.788;6.940;2023-11-21T01:33:33;74.93;;;29.83;;
53207;SDS011;39093;52.788;6.940;2023-11-21T01:36:00;94.68;;;31.05;;
53207;SDS011;39093;52.788;6.940;2023-11-21T01:38:27;77.32;;;30.15;;
53207;SDS011;39093;52.788;6.940;2023-11-21T01:40:54;76.20;;;30.17;;
53207;SDS011;39093;52.788;6.940;2023-11-21T01:43:21;81.88;;;31.40;;
53207;SDS011;39093;52.788;6.940;2023-11-21T01:45:48;77.75;;;30.42;;
53207;SDS011;39093;52.788;6.940;2023-11-21T01:48:17;76.30;;;29.30;;
53207;SDS011;39093;52.788;6.940;2023-11-21T01:50:44;66.93;;;29.83;;
53207;SDS011;39093;52.788;6.940;2023-11-21T01:53:12;74.97;;;29.70;;
53207;SDS011;39093;52.788;6.940;2023-11-21T01:55:40;88.05;;;30.30;;
53207;SDS011;39093;52.788;6.940;2023-11-21T01:58:08;77.95;;;31.38;;
53207;SDS011;39093;52.788;6.940;2023-11-21T02:00:36;86.30;;;31.10;;
53207;SDS011;39093;52.788;6.940;2023-11-21T02:03:04;88.20;;;31.73;;
53207;SDS011;39093;52.788;6.940;2023-11-21T02:05:33;88.22;;;31.10;;
53207;SDS011;39093;52.788;6.940;2023-11-21T02:08:00;88.15;;;33.00;;
53207;SDS011;39093;52.788;6.940;2023-11-21T02:10:28;78.30;;;31.00;;
53207;SDS011;39093;52.788;6.940;2023-11-21T02:12:57;99.28;;;33.25;;
53207;SDS011;39093;52.788;6.940;2023-11-21T02:15:24;82.70;;;31.92;;
53207;SDS011;39093;52.788;6.940;2023-11-21T02:17:55;87.55;;;32.42;;
53207;SDS011;39093;52.788;6.940;2023-11-21T02:20:25;89.68;;;32.20;;
53207;SDS011;39093;52.788;6.940;2023-11-21T02:22:56;85.03;;;32.45;;
53207;SDS011;39093;52.788;6.940;2023-11-21T02:25:28;76.55;;;32.03;;
53207;SDS011;39093;52.788;6.940;2023-11-21T02:27:56;83.97;;;32.45;;
53207;SDS011;39093;52.788;6.940;2023-11-21T02:30:24;82.00;;;30.58;;
53207;SDS011;39093;52.788;6.940;2023-11-21T02:32:52;79.70;;;30.45;;
53207;SDS011;39093;52.788;6.940;2023-11-21T02:35:20;83.25;;;31.17;;
53207;SDS011;39093;52.788;6.940;2023-11-21T02:37:47;85.32;;;29.40;;
53207;SDS011;39093;52.788;6.940;2023-11-21T02:40:15;78.60;;;29.83;;
53207;SDS011;39093;52.788;6.940;2023-11-21T02:42:47;72.55;;;28.90;;
53207;SDS011;39093;52.788;6.940;2023-11-21T02:45:14;81.05;;;29.80;;
53207;SDS011;39093;52.788;6.940;2023-11-21T02:47:43;85.45;;;29.85;;
53207;SDS011;39093;52.788;6.940;2023-11-21T02:50:11;78.65;;;28.88;;
53207;SDS011;39093;52.788;6.940;2023-11-21T02:52:38;76.85;;;30.23;;
53207;SDS011;39093;52.788;6.940;2023-11-21T02:55:06;80.72;;;30.20;;
53207;SDS011;39093;52.788;6.940;2023-11-21T02:57:33;90.15;;;29.27;;
53207;SDS011;39093;52.788;6.940;2023-11-21T03:00:00;77.57;;;29.02;;
53207;SDS011;39093;52.788;6.940;2023-11-21T03:02:27;74.40;;;28.35;;
53207;SDS011;39093;52.788;6.940;2023-11-21T03:04:54;73.13;;;28.80;;
53207;SDS011;39093;52.788;6.940;2023-11-21T03:07:21;73.32;;;28.42;;
53207;SDS011;39093;52.788;6.940;2023-11-21T03:09:50;80.90;;;28.38;;
53207;SDS011;39093;52.788;6.940;2023-11-21T03:12:16;82.75;;;31.48;;
53207;SDS011;39093;52.788;6.940;2023-11-21T03:14:43;92.78;;;31.60;;
53207;SDS011;39093;52.788;6.940;2023-11-21T03:17:10;75.43;;;28.25;;
53207;SDS011;39093;52.788;6.940;2023-11-21T03:19:38;84.85;;;29.50;;
53207;SDS011;39093;52.788;6.940;2023-11-21T03:22:05;80.95;;;28.45;;
53207;SDS011;39093;52.788;6.940;2023-11-21T03:24:31;79.78;;;29.45;;
53207;SDS011;39093;52.788;6.940;2023-11-21T03:26:58;85.93;;;30.20;;
53207;SDS011;39093;52.788;6.940;2023-11-21T03:29:25;98.38;;;31.83;;
53207;SDS011;39093;52.788;6.940;2023-11-21T03:31:53;96.70;;;30.40;;
53207;SDS011;39093;52.788;6.940;2023-11-21T03:34:24;82.82;;;28.85;;
53207;SDS011;39093;52.788;6.940;2023-11-21T03:36:53;111.80;;;31.10;;
53207;SDS011;39093;52.788;6.940;2023-11-21T03:39:20;89.45;;;29.88;;
53207;SDS011;39093;52.788;6.940;2023-11-21T03:41:49;71.32;;;29.42;;
53207;SDS011;39093;52.788;6.940;2023-11-21T03:44:16;106.50;;;30.95;;
53207;SDS011;39093;52.788;6.940;2023-11-21T03:46:44;80.85;;;30.95;;
53207;SDS011;39093;52.788;6.940;2023-11-21T03:49:11;77.05;;;29.92;;
53207;SDS011;39093;52.788;6.940;2023-11-21T03:51:38;81.55;;;30.20;;
53207;SDS011;39093;52.788;6.940;2023-11-21T03:54:04;106.05;;;32.85;;
53207;SDS011;39093;52.788;6.940;2023-11-21T03:56:32;87.68;;;32.20;;
53207;SDS011;39093;52.788;6.940;2023-11-21T03:58:59;104.72;;;33.95;;
53207;SDS011;39093;52.788;6.940;2023-11-21T04:01:25;93.80;;;33.30;;
53207;SDS011;39093;52.788;6.940;2023-11-21T04:03:52;79.70;;;30.00;;
53207;SDS011;39093;52.788;6.940;2023-11-21T04:06:19;89.93;;;32.13;;
53207;SDS011;39093;52.788;6.940;2023-11-21T04:08:46;114.90;;;34.38;;
53207;SDS011;39093;52.788;6.940;2023-11-21T04:11:13;108.40;;;35.58;;
53207;SDS011;39093;52.788;6.940;2023-11-21T04:13:42;133.60;;;37.08;;
53207;SDS011;39093;52.788;6.940;2023-11-21T04:16:09;111.90;;;35.95;;
53207;SDS011;39093;52.788;6.940;2023-11-21T04:18:36;121.00;;;36.35;;
53207;SDS011;39093;52.788;6.940;2023-11-21T04:21:07;134.73;;;38.97;;
53207;SDS011;39093;52.788;6.940;2023-11-21T04:23:34;141.70;;;37.60;;
53207;SDS011;39093;52.788;6.940;2023-11-21T04:26:02;116.75;;;36.40;;
53207;SDS011;39093;52.788;6.940;2023-11-21T04:28:29;115.30;;;37.08;;
53207;SDS011;39093;52.788;6.940;2023-11-21T04:30:56;118.50;;;37.17;;
53207;SDS011;39093;52.788;6.940;2023-11-21T04:33:24;140.13;;;38.38;;
53207;SDS011;39093;52.788;6.940;2023-11-21T04:35:51;120.38;;;37.10;;
53207;SDS011;39093;52.788;6.940;2023-11-21T04:38:18;138.40;;;38.03;;
53207;SDS011;39093;52.788;6.940;2023-11-21T04:40:45;109.18;;;36.40;;
53207;SDS011;39093;52.788;6.940;2023-11-21T04:43:13;126.78;;;37.28;;
53207;SDS011;39093;52.788;6.940;2023-11-21T04:45:39;126.43;;;38.30;;
53207;SDS011;39093;52.788;6.940;2023-11-21T04:48:07;108.03;;;35.03;;
53207;SDS011;39093;52.788;6.940;2023-11-21T04:50:35;118.00;;;37.28;;
53207;SDS011;39093;52.788;6.940;2023-11-21T04:53:01;125.75;;;39.33;;
53207;SDS011;39093;52.788;6.940;2023-11-21T04:55:28;137.15;;;40.03;;
53207;SDS011;39093;52.788;6.940;2023-11-21T04:57:55;123.22;;;39.63;;
53207;SDS011;39093;52.788;6.940;2023-11-21T05:00:22;146.38;;;41.50;;
53207;SDS011;39093;52.788;6.940;2023-11-21T05:02:50;145.23;;;40.03;;
53207;SDS011;39093;52.788;6.940;2023-11-21T05:05:19;119.18;;;38.83;;
53207;SDS011;39093;52.788;6.940;2023-11-21T05:07:46;143.73;;;39.97;;
53207;SDS011;39093;52.788;6.940;2023-11-21T05:10:15;147.55;;;40.20;;
53207;SDS011;39093;52.788;6.940;2023-11-21T05:12:42;156.23;;;44.10;;
53207;SDS011;39093;52.788;6.940;2023-11-21T05:15:09;142.77;;;40.60;;
53207;SDS011;39093;52.788;6.940;2023-11-21T05:17:41;144.65;;;41.13;;
53207;SDS011;39093;52.788;6.940;2023-11-21T05:20:13;142.15;;;40.22;;
53207;SDS011;39093;52.788;6.940;2023-11-21T05:22:44;157.57;;;42.70;;
53207;SDS011;39093;52.788;6.940;2023-11-21T05:25:11;139.60;;;41.58;;
53207;SDS011;39093;52.788;6.940;2023-11-21T05:27:38;125.05;;;40.10;;
53207;SDS011;39093;52.788;6.940;2023-11-21T05:30:06;129.13;;;38.72;;
53207;SDS011;39093;52.788;6.940;2023-11-21T05:32:35;137.85;;;39.22;;
53207;SDS011;39093;52.788;6.940;2023-11-21T05:35:02;156.52;;;41.17;;
53207;SDS011;39093;52.788;6.940;2023-11-21T05:37:29;137.60;;;40.70;;
53207;SDS011;39093;52.788;6.940;2023-11-21T05:39:57;133.10;;;39.72;;
53207;SDS011;39093;52.788;6.940;2023-11-21T05:42:23;157.05;;;41.28;;
53207;SDS011;39093;52.788;6.940;2023-11-21T05:44:50;162.27;;;41.53;;
53207;SDS011;39093;52.788;6.940;2023-11-21T05:47:18;150.35;;;42.72;;
53207;SDS011;39093;52.788;6.940;2023-11-21T05:49:45;158.80;;;43.10;;
53207;SDS011;39093;52.788;6.940;2023-11-21T05:52:16;147.80;;;42.53;;
53207;SDS011;39093;52.788;6.940;2023-11-21T05:54:44;169.02;;;42.72;;
53207;SDS011;39093;52.788;6.940;2023-11-21T05:57:11;175.35;;;43.83;;
53207;SDS011;39093;52.788;6.940;2023-11-21T05:59:38;171.85;;;44.05;;
53207;SDS011;39093;52.788;6.940;2023-11-21T06:02:05;149.20;;;41.83;;
53207;SDS011;39093;52.788;6.940;2023-11-21T06:04:34;175.48;;;44.58;;
53207;SDS011;39093;52.788;6.940;2023-11-21T06:07:01;186.15;;;45.80;;
53207;SDS011;39093;52.788;6.940;2023-11-21T06:09:28;200.68;;;48.72;;
53207;SDS011;39093;52.788;6.940;2023-11-21T06:11:54;194.75;;;47.95;;
53207;SDS011;39093;52.788;6.940;2023-11-21T06:14:21;204.82;;;47.97;;
53207;SDS011;39093;52.788;6.940;2023-11-21T06:16:49;229.45;;;51.03;;
53207;SDS011;39093;52.788;6.940;2023-11-21T06:19:17;168.77;;;45.92;;
53207;SDS011;39093;52.788;6.940;2023-11-21T06:21:45;188.98;;;47.88;;
53207;SDS011;39093;52.788;6.940;2023-11-21T06:24:13;179.23;;;46.80;;
53207;SDS011;39093;52.788;6.940;2023-11-21T06:26:41;151.30;;;44.78;;
53207;SDS011;39093;52.788;6.940;2023-11-21T06:29:08;170.70;;;45.15;;
53207;SDS011;39093;52.788;6.940;2023-11-21T06:31:35;250.30;;;50.33;;
53207;SDS011;39093;52.788;6.940;2023-11-21T06:34:02;213.95;;;51.90;;
53207;SDS011;39093;52.788;6.940;2023-11-21T06:36:30;144.85;;;43.47;;
53207;SDS011;39093;52.788;6.940;2023-11-21T06:38:57;202.18;;;48.97;;
53207;SDS011;39093;52.788;6.940;2023-11-21T06:41:23;150.07;;;43.15;;
53207;SDS011;39093;52.788;6.940;2023-11-21T06:43:50;212.18;;;50.38;;
53207;SDS011;39093;52.788;6.940;2023-11-21T06:46:18;201.07;;;47.50;;
53207;SDS011;39093;52.788;6.940;2023-11-21T06:48:46;217.77;;;49.78;;
53207;SDS011;39093;52.788;6.940;2023-11-21T06:51:15;215.77;;;50.45;;
53207;SDS011;39093;52.788;6.940;2023-11-21T06:53:42;179.05;;;47.35;;
53207;SDS011;39093;52.788;6.940;2023-11-21T06:56:15;100.03;;;36.65;;
53207;SDS011;39093;52.788;6.940;2023-11-21T06:58:45;146.10;;;42.28;;
53207;SDS011;39093;52.788;6.940;2023-11-21T07:01:13;153.48;;;45.15;;
53207;SDS011;39093;52.788;6.940;2023-11-21T07:03:40;120.40;;;39.03;;
53207;SDS011;39093;52.788;6.940;2023-11-21T07:06:08;202.02;;;48.22;;
53207;SDS011;39093;52.788;6.940;2023-11-21T07:08:38;131.80;;;42.50;;
53207;SDS011;39093;52.788;6.940;2023-11-21T07:11:05;117.35;;;42.10;;
53207;SDS011;39093;52.788;6.940;2023-11-21T07:13:31;190.73;;;48.38;;
53207;SDS011;39093;52.788;6.940;2023-11-21T07:15:59;201.20;;;48.35;;
53207;SDS011;39093;52.788;6.940;2023-11-21T07:18:26;181.15;;;47.63;;
53207;SDS011;39093;52.788;6.940;2023-11-21T07:20:53;164.07;;;46.45;;
53207;SDS011;39093;52.788;6.940;2023-11-21T07:23:20;207.60;;;48.10;;
53207;SDS011;39093;52.788;6.940;2023-11-21T07:25:49;137.95;;;43.47;;
53207;SDS011;39093;52.788;6.940;2023-11-21T07:28:16;141.10;;;41.40;;
53207;SDS011;39093;52.788;6.940;2023-11-21T07:30:43;115.57;;;38.47;;
53207;SDS011;39093;52.788;6.940;2023-11-21T07:33:10;118.20;;;38.33;;
53207;SDS011;39093;52.788;6.940;2023-11-21T07:35:37;129.80;;;39.33;;
53207;SDS011;39093;52.788;6.940;2023-11-21T07:38:04;119.50;;;40.95;;
53207;SDS011;39093;52.788;6.940;2023-11-21T07:40:31;101.50;;;36.35;;
53207;SDS011;39093;52.788;6.940;2023-11-21T07:42:58;106.90;;;36.17;;
53207;SDS011;39093;52.788;6.940;2023-11-21T07:45:25;109.97;;;35.95;;
53207;SDS011;39093;52.788;6.940;2023-11-21T07:47:55;134.18;;;38.85;;
53207;SDS011;39093;52.788;6.940;2023-11-21T07:50:22;164.25;;;40.60;;
53207;SDS011;39093;52.788;6.940;2023-11-21T07:52:50;112.72;;;36.90;;
53207;SDS011;39093;52.788;6.940;2023-11-21T07:55:17;132.85;;;38.20;;
53207;SDS011;39093;52.788;6.940;2023-11-21T07:57:44;107.70;;;35.13;;
53207;SDS011;39093;52.788;6.940;2023-11-21T08:00:11;134.60;;;37.00;;
53207;SDS011;39093;52.788;6.940;2023-11-21T08:02:39;151.82;;;39.92;;
53207;SDS011;39093;52.788;6.940;2023-11-21T08:05:09;103.70;;;35.35;;
53207;SDS011;39093;52.788;6.940;2023-11-21T08:07:50;129.45;;;37.85;;
53207;SDS011;39093;52.788;6.940;2023-11-21T08:10:17;100.78;;;33.20;;
53207;SDS011;39093;52.788;6.940;2023-11-21T08:12:44;101.90;;;34.22;;
53207;SDS011;39093;52.788;6.940;2023-11-21T08:15:11;103.28;;;35.15;;
53207;SDS011;39093;52.788;6.940;2023-11-21T08:17:38;117.40;;;35.97;;
53207;SDS011;39093;52.788;6.940;2023-11-21T08:20:05;99.05;;;33.83;;
53207;SDS011;39093;52.788;6.940;2023-11-21T08:22:35;100.10;;;34.55;;
53207;SDS011;39093;52.788;6.940;2023-11-21T08:25:02;101.80;;;34.72;;
53207;SDS011;39093;52.788;6.940;2023-11-21T08:27:32;106.85;;;35.17;;
53207;SDS011;39093;52.788;6.940;2023-11-21T08:29:59;106.25;;;33.55;;
53207;SDS011;39093;52.788;6.940;2023-11-21T08:32:26;92.13;;;32.58;;
53207;SDS011;39093;52.788;6.940;2023-11-21T08:34:53;96.65;;;34.22;;
53207;SDS011;39093;52.788;6.940;2023-11-21T08:37:21;148.85;;;38.40;;
53207;SDS011;39093;52.788;6.940;2023-11-21T08:39:48;105.70;;;33.42;;
53207;SDS011;39093;52.788;6.940;2023-11-21T08:42:15;123.18;;;37.42;;
53207;SDS011;39093;52.788;6.940;2023-11-21T08:44:42;104.20;;;31.63;;
53207;SDS011;39093;52.788;6.940;2023-11-21T08:47:09;145.30;;;32.67;;
53207;SDS011;39093;52.788;6.940;2023-11-21T08:49:36;94.07;;;30.15;;
53207;SDS011;39093;52.788;6.940;2023-11-21T08:52:03;162.15;;;35.03;;
53207;SDS011;39093;52.788;6.940;2023-11-21T08:54:31;130.85;;;32.55;;
53207;SDS011;39093;52.788;6.940;2023-11-21T08:56:58;194.95;;;37.13;;
53207;SDS011;39093;52.788;6.940;2023-11-21T08:59:25;187.88;;;37.88;;
53207;SDS011;39093;52.788;6.940;2023-11-21T09:01:52;215.93;;;39.53;;
53207;SDS011;39093;52.788;6.940;2023-11-21T09:04:19;191.68;;;40.20;;
53207;SDS011;39093;52.788;6.940;2023-11-21T09:06:46;158.63;;;38.15;;
53207;SDS011;39093;52.788;6.940;2023-11-21T09:09:13;142.60;;;37.17;;
53207;SDS011;39093;52.788;6.940;2023-11-21T09:11:41;148.15;;;38.03;;
53207;SDS011;39093;52.788;6.940;2023-11-21T09:14:08;157.07;;;39.28;;
53207;SDS011;39093;52.788;6.940;2023-11-21T09:16:36;160.55;;;42.33;;
53207;SDS011;39093;52.788;6.940;2023-11-21T09:19:03;157.88;;;39.72;;
53207;SDS011;39093;52.788;6.940;2023-11-21T09:21:31;126.43;;;39.00;;
53207;SDS011;39093;52.788;6.940;2023-11-21T09:24:01;130.77;;;39.38;;
53207;SDS011;39093;52.788;6.940;2023-11-21T09:26:29;149.05;;;40.13;;
53207;SDS011;39093;52.788;6.940;2023-11-21T09:28:56;141.40;;;40.20;;
53207;SDS011;39093;52.788;6.940;2023-11-21T09:31:23;103.57;;;35.63;;
53207;SDS011;39093;52.788;6.940;2023-11-21T09:33:50;110.03;;;36.63;;
53207;SDS011;39093;52.788;6.940;2023-11-21T09:36:17;128.27;;;38.88;;
53207;SDS011;39093;52.788;6.940;2023-11-21T09:38:44;107.30;;;36.30;;
53207;SDS011;39093;52.788;6.940;2023-11-21T09:41:15;97.05;;;36.10;;
53207;SDS011;39093;52.788;6.940;2023-11-21T09:43:54;85.47;;;33.95;;
53207;SDS011;39093;52.788;6.940;2023-11-21T09:46:25;105.57;;;35.47;;
53207;SDS011;39093;52.788;6.940;2023-11-21T09:48:56;72.43;;;31.70;;
53207;SDS011;39093;52.788;6.940;2023-11-21T09:51:27;65.25;;;31.23;;
53207;SDS011;39093;52.788;6.940;2023-11-21T09:54:00;70.18;;;31.85;;
53207;SDS011;39093;52.788;6.940;2023-11-21T09:56:32;73.35;;;36.58;;
53207;SDS011;39093;52.788;6.940;2023-11-21T09:58:59;65.53;;;30.27;;
53207;SDS011;39093;52.788;6.940;2023-11-21T10:01:32;71.70;;;29.38;;
53207;SDS011;39093;52.788;6.940;2023-11-21T10:04:02;66.45;;;28.55;;
53207;SDS011;39093;52.788;6.940;2023-11-21T10:06:29;76.22;;;29.98;;
53207;SDS011;39093;52.788;6.940;2023-11-21T10:08:58;75.88;;;30.15;;
53207;SDS011;39093;52.788;6.940;2023-11-21T10:11:26;63.72;;;29.05;;
53207;SDS011;39093;52.788;6.940;2023-11-21T10:13:56;67.68;;;28.95;;
53207;SDS011;39093;52.788;6.940;2023-11-21T10:16:27;55.58;;;27.90;;
53207;SDS011;39093;52.788;6.940;2023-11-21T10:18:55;46.75;;;26.05;;
53207;SDS011;39093;52.788;6.940;2023-11-21T10:21:37;49.05;;;26.85;;
53207;SDS011;39093;52.788;6.940;2023-11-21T10:24:05;45.53;;;25.67;;
53207;SDS011;39093;52.788;6.940;2023-11-21T10:26:42;42.55;;;25.27;;
53207;SDS011;39093;52.788;6.940;2023-11-21T10:29:19;49.90;;;31.00;;
53207;SDS011;39093;52.788;6.940;2023-11-21T10:31:51;41.13;;;24.88;;
53207;SDS011;39093;52.788;6.940;2023-11-21T10:34:20;37.45;;;23.15;;
53207;SDS011;39093;52.788;6.940;2023-11-21T10:36:48;31.13;;;20.65;;
53207;SDS011;39093;52.788;6.940;2023-11-21T10:39:19;24.48;;;18.33;;
53207;SDS011;39093;52.788;6.940;2023-11-21T10:41:47;20.02;;;15.57;;
53207;SDS011;39093;52.788;6.940;2023-11-21T10:44:15;19.33;;;14.98;;
53207;SDS011;39093;52.788;6.940;2023-11-21T10:46:51;17.95;;;13.35;;
53207;SDS011;39093;52.788;6.940;2023-11-21T10:49:22;16.10;;;13.25;;
53207;SDS011;39093;52.788;6.940;2023-11-21T10:51:52;14.43;;;11.75;;
53207;SDS011;39093;52.788;6.940;2023-11-21T10:54:20;14.68;;;10.98;;
53207;SDS011;39093;52.788;6.940;2023-11-21T10:56:48;13.80;;;11.30;;
53207;SDS011;39093;52.788;6.940;2023-11-21T10:59:17;13.82;;;10.70;;
53207;SDS011;39093;52.788;6.940;2023-11-21T11:01:45;14.77;;;10.52;;
53207;SDS011;39093;52.788;6.940;2023-11-21T11:04:12;11.80;;;10.23;;
53207;SDS011;39093;52.788;6.940;2023-11-21T11:06:43;16.50;;;10.57;;
53207;SDS011;39093;52.788;6.940;2023-11-21T11:09:11;13.75;;;10.95;;
53207;SDS011;39093;52.788;6.940;2023-11-21T11:11:40;15.60;;;12.02;;
53207;SDS011;39093;52.788;6.940;2023-11-21T11:14:13;12.40;;;10.65;;
53207;SDS011;39093;52.788;6.940;2023-11-21T11:16:41;14.23;;;9.93;;
53207;SDS011;39093;52.788;6.940;2023-11-21T11:19:09;14.95;;;10.95;;
53207;SDS011;39093;52.788;6.940;2023-11-21T11:27:29;14.65;;;11.43;;
53207;SDS011;39093;52.788;6.940;2023-11-21T11:32:52;13.32;;;10.43;;
53207;SDS011;39093;52.788;6.940;2023-11-21T11:35:19;13.10;;;9.75;;
53207;SDS011;39093;52.788;6.940;2023-11-21T11:40:52;12.77;;;8.73;;
53207;SDS011;39093;52.788;6.940;2023-11-21T11:43:26;14.57;;;9.55;;
53207;SDS011;39093;52.788;6.940;2023-11-21T11:45:57;14.73;;;10.05;;
53207;SDS011;39093;52.788;6.940;2023-11-21T11:48:30;10.85;;;9.18;;
53207;SDS011;39093;52.788;6.940;2023-11-21T11:51:11;11.20;;;8.98;;
53207;SDS011;39093;52.788;6.940;2023-11-21T11:53:48;15.10;;;10.05;;
53207;SDS011;39093;52.788;6.940;2023-11-21T11:58:53;11.25;;;9.20;;
53207;SDS011;39093;52.788;6.940;2023-11-21T12:01:21;12.07;;;10.38;;
53207;SDS011;39093;52.788;6.940;2023-11-21T12:06:41;15.00;;;11.13;;
53207;SDS011;39093;52.788;6.940;2023-11-21T12:09:18;13.50;;;9.77;;
53207;SDS011;39093;52.788;6.940;2023-11-21T12:11:49;12.50;;;9.80;;
53207;SDS011;39093;52.788;6.940;2023-11-21T12:14:17;11.40;;;8.73;;
53207;SDS011;39093;52.788;6.940;2023-11-21T12:16:44;11.05;;;8.70;;
53207;SDS011;39093;52.788;6.940;2023-11-21T12:19:12;13.20;;;9.65;;
53207;SDS011;39093;52.788;6.940;2023-11-21T12:21:41;12.57;;;9.38;;
53207;SDS011;39093;52.788;6.940;2023-11-21T12:24:10;21.50;;;15.20;;
53207;SDS011;39093;52.788;6.940;2023-11-21T12:26:40;10.63;;;8.88;;
53207;SDS011;39093;52.788;6.940;2023-11-21T12:29:08;13.35;;;9.35;;
53207;SDS011;39093;52.788;6.940;2023-11-21T12:31:35;12.27;;;8.88;;
53207;SDS011;39093;52.788;6.940;2023-11-21T12:34:02;13.02;;;9.90;;
53207;SDS011;39093;52.788;6.940;2023-11-21T12:36:30;11.68;;;9.82;;
53207;SDS011;39093;52.788;6.940;2023-11-21T12:38:58;12.65;;;9.90;;
53207;SDS011;39093;52.788;6.940;2023-11-21T12:41:25;10.98;;;9.18;;
53207;SDS011;39093;52.788;6.940;2023-11-21T12:43:52;13.13;;;9.95;;
53207;SDS011;39093;52.788;6.940;2023-11-21T12:46:19;10.32;;;9.02;;
53207;SDS011;39093;52.788;6.940;2023-11-21T12:48:47;13.20;;;9.32;;
53207;SDS011;39093;52.788;6.940;2023-11-21T12:51:14;14.13;;;9.75;;
53207;SDS011;39093;52.788;6.940;2023-11-21T12:53:42;11.07;;;9.48;;
53207;SDS011;39093;52.788;6.940;2023-11-21T12:56:11;14.20;;;9.65;;
53207;SDS011;39093;52.788;6.940;2023-11-21T12:58:39;12.52;;;9.90;;
53207;SDS011;39093;52.788;6.940;2023-11-21T13:01:08;10.48;;;9.32;;
53207;SDS011;39093;52.788;6.940;2023-11-21T13:03:38;11.90;;;9.52;;
53207;SDS011;39093;52.788;6.940;2023-11-21T13:06:07;16.35;;;9.35;;
53207;SDS011;39093;52.788;6.940;2023-11-21T13:08:34;13.13;;;9.50;;
53207;SDS011;39093;52.788;6.940;2023-11-21T13:11:01;12.80;;;9.05;;
53207;SDS011;39093;52.788;6.940;2023-11-21T13:13:29;12.68;;;9.68;;
53207;SDS011;39093;52.788;6.940;2023-11-21T13:16:00;10.93;;;9.35;;
53207;SDS011;39093;52.788;6.940;2023-11-21T13:18:28;17.50;;;8.95;;
53207;SDS011;39093;52.788;6.940;2023-11-21T13:20:56;13.57;;;9.85;;
53207;SDS011;39093;52.788;6.940;2023-11-21T13:23:28;15.80;;;9.35;;
53207;SDS011;39093;52.788;6.940;2023-11-21T13:25:58;12.07;;;9.38;;
53207;SDS011;39093;52.788;6.940;2023-11-21T13:28:33;11.13;;;8.80;;
53207;SDS011;39093;52.788;6.940;2023-11-21T13:31:01;12.05;;;10.00;;
53207;SDS011;39093;52.788;6.940;2023-11-21T13:33:37;11.00;;;9.02;;
53207;SDS011;39093;52.788;6.940;2023-11-21T13:36:05;12.65;;;10.00;;
53207;SDS011;39093;52.788;6.940;2023-11-21T13:38:37;10.88;;;8.75;;
53207;SDS011;39093;52.788;6.940;2023-11-21T13:41:09;13.32;;;9.43;;
53207;SDS011;39093;52.788;6.940;2023-11-21T13:43:38;12.75;;;9.30;;
53207;SDS011;39093;52.788;6.940;2023-11-21T13:46:06;14.00;;;9.80;;
53207;SDS011;39093;52.788;6.940;2023-11-21T13:48:40;10.15;;;9.07;;
53207;SDS011;39093;52.788;6.940;2023-11-21T13:51:09;13.73;;;9.57;;
53207;SDS011;39093;52.788;6.940;2023-11-21T13:53:47;12.98;;;9.85;;
53207;SDS011;39093;52.788;6.940;2023-11-21T13:56:17;15.18;;;10.00;;
53207;SDS011;39093;52.788;6.940;2023-11-21T13:58:51;15.02;;;9.25;;
53207;SDS011;39093;52.788;6.940;2023-11-21T14:01:19;13.73;;;10.00;;
53207;SDS011;39093;52.788;6.940;2023-11-21T14:04:08;12.25;;;9.00;;
53207;SDS011;39093;52.788;6.940;2023-11-21T14:06:49;12.18;;;9.38;;
53207;SDS011;39093;52.788;6.940;2023-11-21T14:09:19;13.25;;;9.15;;
53207;SDS011;39093;52.788;6.940;2023-11-21T14:12:02;15.10;;;9.88;;
53207;SDS011;39093;52.788;6.940;2023-11-21T14:14:33;10.75;;;8.75;;
53207;SDS011;39093;52.788;6.940;2023-11-21T14:17:00;13.23;;;9.52;;
53207;SDS011;39093;52.788;6.940;2023-11-21T14:19:33;13.60;;;9.60;;
53207;SDS011;39093;52.788;6.940;2023-11-21T14:22:03;11.55;;;9.60;;
53207;SDS011;39093;52.788;6.940;2023-11-21T14:24:30;10.45;;;9.20;;
53207;SDS011;39093;52.788;6.940;2023-11-21T14:26:58;14.70;;;10.50;;
53207;SDS011;39093;52.788;6.940;2023-11-21T14:29:26;12.20;;;9.35;;
53207;SDS011;39093;52.788;6.940;2023-11-21T14:31:54;12.20;;;9.23;;
53207;SDS011;39093;52.788;6.940;2023-11-21T14:34:23;11.43;;;8.98;;
53207;SDS011;39093;52.788;6.940;2023-11-21T14:36:55;14.38;;;9.77;;
53207;SDS011;39093;52.788;6.940;2023-11-21T14:39:23;13.32;;;9.88;;
53207;SDS011;39093;52.788;6.940;2023-11-21T14:41:53;12.80;;;9.25;;